createdAt,value
2023-03-03T00:00:22.219Z,99985.03
2023-03-03T00:01:01.358Z,99989.41
2023-03-03T00:01:53.153Z,99982.72
2023-03-03T00:02:35.372Z,99983.13
2023-03-03T00:03:23.143Z,99982.72
2023-03-03T00:04:02.910Z,99985.25
2023-03-03T00:04:45.240Z,99986.72
2023-03-03T00:05:34.555Z,99994.22
2023-03-03T00:06:15.251Z,99985.03
2023-03-03T00:08:15.022Z,99987.16
2023-03-03T00:09:35.329Z,99986.53
2023-03-03T00:10:52.993Z,99995.50
2023-03-03T00:11:56.077Z,99980.28
2023-03-03T00:12:47.058Z,99988.97
2023-03-03T00:13:28.983Z,99983.38
2023-03-03T00:14:28.615Z,99987.16
2023-03-03T00:15:52.711Z,99979.81
2023-03-03T00:17:11.950Z,99987.78
2023-03-03T00:17:53.184Z,99976.31
2023-03-03T00:19:26.907Z,99983.78
2023-03-03T00:20:35.625Z,99981.53
2023-03-03T00:21:58.353Z,99985.66
2023-03-03T00:22:38.327Z,99982.53
2023-03-03T00:23:27.241Z,99978.59
2023-03-03T00:24:51.687Z,99986.50
2023-03-03T00:25:34.679Z,99980.66
2023-03-03T00:26:22.064Z,99976.28
2023-03-03T00:27:28.033Z,99982.31
2023-03-03T00:28:33.123Z,99978.38
2023-03-03T00:29:13.687Z,99972.72
2023-03-03T00:30:31.631Z,99977.97
2023-03-03T00:32:07.041Z,99977.13
2023-03-03T00:32:50.873Z,99966.69
2023-03-03T00:33:39.705Z,99968.34
2023-03-03T00:34:20.289Z,99969.84
2023-03-03T00:35:38.924Z,99966.69
2023-03-03T00:36:38.210Z,99971.03
2023-03-03T00:37:35.850Z,99965.63
2023-03-03T00:38:18.422Z,99964.38
2023-03-03T00:39:25.307Z,99964.56
2023-03-03T00:40:22.471Z,99961.84
2023-03-03T00:41:01.494Z,99963.97
2023-03-03T00:41:41.400Z,99960.00
2023-03-03T00:42:28.613Z,99963.53
2023-03-03T00:43:22.408Z,99960.22
2023-03-03T00:44:41.899Z,99961.47
2023-03-03T00:45:50.689Z,99956.69
2023-03-03T00:47:45.338Z,99958.97
2023-03-03T00:49:22.264Z,99958.13
2023-03-03T00:50:52.458Z,99951.44
2023-03-03T00:51:41.911Z,99948.72
2023-03-03T00:52:21.397Z,99954.38
2023-03-03T00:53:24.049Z,99948.72
2023-03-03T00:54:27.701Z,99952.09
2023-03-03T00:55:54.236Z,99952.28
2023-03-03T00:56:57.426Z,99955.41
2023-03-03T00:59:04.118Z,99948.72
2023-03-03T00:59:53.216Z,99953.47
2023-03-03T01:00:36.275Z,99946.41
2023-03-03T01:01:28.187Z,99950.19
2023-03-03T01:02:08.775Z,99940.19
2023-03-03T01:04:07.314Z,99943.66
2023-03-03T01:04:56.495Z,99939.84
2023-03-03T01:05:45.357Z,99942.97
2023-03-03T01:06:24.258Z,99942.97
2023-03-03T01:07:04.897Z,99945.47
2023-03-03T01:08:46.035Z,99932.81
2023-03-03T01:09:35.136Z,99939.66
2023-03-03T01:10:15.056Z,99933.19
2023-03-03T01:11:00.948Z,99933.44
2023-03-03T01:12:32.868Z,99927.00
2023-03-03T01:13:12.032Z,99928.03
2023-03-03T01:13:53.611Z,99931.13
2023-03-03T01:15:14.877Z,99927.59
2023-03-03T01:15:54.756Z,99926.97
2023-03-03T01:16:34.868Z,99916.81
2023-03-03T01:17:24.233Z,99921.59
2023-03-03T01:18:04.685Z,99922.03
2023-03-03T01:19:43.050Z,99917.16
2023-03-03T01:20:23.855Z,99910.47
2023-03-03T01:21:57.754Z,99916.94
2023-03-03T01:22:45.137Z,99916.09
2023-03-03T01:23:48.897Z,99918.84
2023-03-03T01:24:28.013Z,99913.44
2023-03-03T01:25:08.799Z,99914.63
2023-03-03T01:26:27.675Z,99911.69
2023-03-03T01:27:48.775Z,99915.19
2023-03-03T01:30:21.104Z,99911.31
2023-03-03T01:31:01.609Z,99909.63
2023-03-03T01:33:00.763Z,99906.56
2023-03-03T01:34:27.288Z,99904.66
2023-03-03T01:35:09.856Z,99904.69
2023-03-03T01:36:13.039Z,99905.94
2023-03-03T01:37:17.452Z,99897.41
2023-03-03T01:38:48.208Z,99904.72
2023-03-03T01:39:30.423Z,99903.88
2023-03-03T01:40:23.651Z,99898.25
2023-03-03T01:41:06.524Z,99902.66
2023-03-03T01:42:10.014Z,99899.31
2023-03-03T01:42:48.917Z,99896.63
2023-03-03T01:43:53.124Z,99897.69
2023-03-03T01:45:52.101Z,99894.38
2023-03-03T01:47:01.482Z,99891.22
2023-03-03T01:48:45.024Z,99888.94
2023-03-03T01:49:24.086Z,99888.94
2023-03-03T01:50:19.099Z,99886.84
2023-03-03T01:52:44.633Z,99883.72
2023-03-03T01:54:40.547Z,99881.25
2023-03-03T01:55:20.079Z,99886.03
2023-03-03T01:56:03.497Z,99881.88
2023-03-03T01:56:46.112Z,99891.44
2023-03-03T01:57:37.475Z,99887.69
2023-03-03T01:58:21.516Z,99887.09
2023-03-03T01:59:21.559Z,99884.56
2023-03-03T02:00:46.351Z,99888.53
2023-03-03T02:02:49.194Z,99882.88
2023-03-03T02:06:01.310Z,99881.88
2023-03-03T02:07:39.109Z,99886.84
2023-03-03T02:08:23.888Z,99886.44
2023-03-03T02:09:15.357Z,99888.09
2023-03-03T02:10:05.415Z,99890.78
2023-03-03T02:11:09.015Z,99891.19
2023-03-03T02:13:10.812Z,99897.06
2023-03-03T02:16:14.171Z,99897.09
2023-03-03T02:16:56.784Z,99895.41
2023-03-03T02:17:44.579Z,99896.66
2023-03-03T02:18:27.841Z,99892.06
2023-03-03T02:19:26.278Z,99894.78
2023-03-03T02:20:40.621Z,99892.91
2023-03-03T02:23:22.582Z,99894.97
2023-03-03T02:24:18.610Z,99897.28
2023-03-03T02:25:27.514Z,99894.56
2023-03-03T02:27:43.514Z,99897.09
2023-03-03T02:28:35.915Z,99881.88
2023-03-03T02:29:20.394Z,99887.28
2023-03-03T02:30:23.796Z,99895.41
2023-03-03T02:31:10.951Z,99885.41
2023-03-03T02:32:14.794Z,99889.38
2023-03-03T02:34:15.118Z,99889.41
2023-03-03T02:35:39.392Z,99881.69
2023-03-03T02:37:39.996Z,99886.69
2023-03-03T02:38:25.867Z,99879.19
2023-03-03T02:39:59.974Z,99883.13
2023-03-03T02:42:10.027Z,99890.03
2023-03-03T02:42:56.007Z,99885.22
2023-03-03T02:43:47.374Z,99884.19
2023-03-03T02:44:30.594Z,99885.22
2023-03-03T02:45:23.613Z,99898.56
2023-03-03T02:46:15.137Z,99890.22
2023-03-03T02:48:38.022Z,99890.44
2023-03-03T02:51:22.209Z,99900.59
2023-03-03T02:53:27.227Z,99898.72
2023-03-03T02:54:08.913Z,99895.63
2023-03-03T02:54:49.109Z,99881.25
2023-03-03T02:55:52.598Z,99893.72
2023-03-03T02:59:12.616Z,99889.59
2023-03-03T02:59:50.931Z,99895.22
2023-03-03T03:00:37.415Z,99891.88
2023-03-03T03:01:17.888Z,99890.84
2023-03-03T03:01:59.396Z,99885.41
2023-03-03T03:02:41.397Z,99890.59
2023-03-03T03:03:45.268Z,99896.44
2023-03-03T03:05:30.177Z,99891.41
2023-03-03T03:06:10.240Z,99882.44
2023-03-03T03:06:48.652Z,99894.75
2023-03-03T03:07:51.706Z,99892.69
2023-03-03T03:08:31.401Z,99888.97
2023-03-03T03:09:11.952Z,99893.13
2023-03-03T03:10:01.221Z,99893.53
2023-03-03T03:10:43.620Z,99892.47
2023-03-03T03:11:24.924Z,99894.16
2023-03-03T03:12:05.652Z,99887.09
2023-03-03T03:12:47.423Z,99885.00
2023-03-03T03:13:28.353Z,99885.22
2023-03-03T03:14:11.705Z,99885.00
2023-03-03T03:15:18.208Z,99887.09
2023-03-03T03:16:00.138Z,99886.47
2023-03-03T03:17:19.373Z,99882.09
2023-03-03T03:18:11.182Z,99882.50
2023-03-03T03:19:15.052Z,99879.81
2023-03-03T03:20:35.022Z,99885.44
2023-03-03T03:21:18.065Z,99887.53
2023-03-03T03:21:59.051Z,99884.41
2023-03-03T03:22:48.334Z,99888.59
2023-03-03T03:23:51.918Z,99891.28
2023-03-03T03:25:51.422Z,99886.09
2023-03-03T03:27:26.938Z,99886.31
2023-03-03T03:28:57.222Z,99886.31
2023-03-03T03:29:39.423Z,99887.34
2023-03-03T03:30:20.848Z,99881.50
2023-03-03T03:31:27.064Z,99883.19
2023-03-03T03:32:13.216Z,99881.91
2023-03-03T03:32:51.363Z,99881.91
2023-03-03T03:33:34.879Z,99882.53
2023-03-03T03:34:38.935Z,99882.91
2023-03-03T03:36:20.759Z,99880.41
2023-03-03T03:39:39.375Z,99878.53
2023-03-03T03:40:19.535Z,99882.91
2023-03-03T03:41:04.791Z,99881.88
2023-03-03T03:43:03.844Z,99884.78
2023-03-03T03:43:47.168Z,99883.13
2023-03-03T03:45:17.600Z,99882.50
2023-03-03T03:46:00.429Z,99879.63
2023-03-03T03:46:40.621Z,99877.31
2023-03-03T03:47:29.256Z,99881.91
2023-03-03T03:48:32.917Z,99878.16
2023-03-03T03:49:12.086Z,99881.50
2023-03-03T03:50:01.418Z,99879.00
2023-03-03T03:51:05.172Z,99878.56
2023-03-03T03:52:22.457Z,99882.72
2023-03-03T03:53:25.632Z,99878.78
2023-03-03T03:55:08.160Z,99879.63
2023-03-03T03:56:35.164Z,99882.13
2023-03-03T03:57:17.492Z,99876.69
2023-03-03T03:58:11.035Z,99876.91
2023-03-03T03:58:50.646Z,99879.81
2023-03-03T03:59:32.682Z,99878.78
2023-03-03T04:00:14.430Z,99885.66
2023-03-03T04:01:17.966Z,99880.25
2023-03-03T04:02:50.166Z,99885.88
2023-03-03T04:04:36.798Z,99878.38
2023-03-03T04:05:19.445Z,99879.63
2023-03-03T04:06:49.985Z,99877.31
2023-03-03T04:07:30.733Z,99883.97
2023-03-03T04:08:53.224Z,99882.75
2023-03-03T04:10:54.326Z,99880.22
2023-03-03T04:11:32.156Z,99882.75
2023-03-03T04:12:13.626Z,99880.22
2023-03-03T04:14:36.065Z,99881.47
2023-03-03T04:16:58.149Z,99881.25
2023-03-03T04:17:38.088Z,99883.72
2023-03-03T04:18:42.903Z,99881.69
2023-03-03T04:20:41.622Z,99887.69
2023-03-03T04:21:23.753Z,99884.34
2023-03-03T04:22:07.108Z,99888.75
2023-03-03T04:22:47.530Z,99888.75
2023-03-03T04:24:06.779Z,99882.09
2023-03-03T04:24:49.731Z,99883.13
2023-03-03T04:29:07.406Z,99877.09
2023-03-03T04:30:11.684Z,99881.50
2023-03-03T04:30:52.225Z,99887.50
2023-03-03T04:31:33.937Z,99886.28
2023-03-03T04:32:14.164Z,99883.31
2023-03-03T04:32:56.966Z,99888.97
2023-03-03T04:34:31.413Z,99891.03
2023-03-03T04:37:21.279Z,99892.47
2023-03-03T04:39:06.481Z,99883.72
2023-03-03T04:41:06.000Z,99892.06
2023-03-03T04:42:28.990Z,99886.84
2023-03-03T04:43:21.455Z,99882.72
2023-03-03T04:44:09.579Z,99883.31
2023-03-03T04:44:58.266Z,99886.44
2023-03-03T04:45:38.396Z,99890.22
2023-03-03T04:47:37.918Z,99885.38
2023-03-03T04:48:18.402Z,99884.56
2023-03-03T04:49:06.104Z,99886.84
2023-03-03T04:49:49.478Z,99878.09
2023-03-03T04:50:33.230Z,99883.50
2023-03-03T04:51:13.042Z,99880.41
2023-03-03T04:51:54.273Z,99885.19
2023-03-03T04:53:14.586Z,99876.44
2023-03-03T04:53:54.453Z,99885.38
2023-03-03T04:54:37.433Z,99885.16
2023-03-03T04:55:40.852Z,99888.72
2023-03-03T04:56:21.231Z,99888.50
2023-03-03T04:57:25.300Z,99889.34
2023-03-03T04:59:24.367Z,99885.13
2023-03-03T05:02:06.473Z,99885.75
2023-03-03T05:02:48.358Z,99890.94
2023-03-03T05:03:28.352Z,99888.44
2023-03-03T05:04:33.836Z,99881.34
2023-03-03T05:05:37.709Z,99884.25
2023-03-03T05:08:34.188Z,99882.34
2023-03-03T05:09:15.251Z,99881.09
2023-03-03T05:11:14.396Z,99877.97
2023-03-03T05:11:56.530Z,99881.50
2023-03-03T05:13:17.355Z,99881.75
2023-03-03T05:15:07.878Z,99885.69
2023-03-03T05:16:47.137Z,99887.00
2023-03-03T05:18:09.996Z,99889.66
2023-03-03T05:19:01.231Z,99890.66
2023-03-03T05:19:41.781Z,99889.00
2023-03-03T05:20:45.534Z,99877.97
2023-03-03T05:21:36.922Z,99882.78
2023-03-03T05:23:49.467Z,99876.34
2023-03-03T05:24:38.831Z,99872.59
2023-03-03T05:25:22.544Z,99876.59
2023-03-03T05:26:26.107Z,99872.44
2023-03-03T05:27:46.355Z,99873.06
2023-03-03T05:28:49.994Z,99874.91
2023-03-03T05:30:09.116Z,99871.59
2023-03-03T05:30:49.753Z,99874.28
2023-03-03T05:33:28.298Z,99880.50
2023-03-03T05:34:52.640Z,99873.28
2023-03-03T05:35:32.920Z,99882.63
2023-03-03T05:36:25.092Z,99869.94
2023-03-03T05:38:07.887Z,99877.41
2023-03-03T05:40:48.924Z,99881.75
2023-03-03T05:41:30.331Z,99877.81
2023-03-03T05:43:53.029Z,99879.88
2023-03-03T05:45:24.480Z,99878.69
2023-03-03T05:46:08.123Z,99880.34
2023-03-03T05:46:48.032Z,99878.06
2023-03-03T05:47:27.991Z,99882.41
2023-03-03T05:48:10.509Z,99876.59
2023-03-03T05:48:50.321Z,99884.09
2023-03-03T05:49:33.799Z,99883.47
2023-03-03T05:50:15.990Z,99880.78
2023-03-03T05:50:59.704Z,99882.81
2023-03-03T05:51:39.001Z,99880.13
2023-03-03T05:52:25.205Z,99878.47
2023-03-03T05:53:07.605Z,99876.16
2023-03-03T05:54:59.928Z,99885.13
2023-03-03T05:56:03.563Z,99882.41
2023-03-03T05:58:22.231Z,99883.41
2023-03-03T06:00:52.172Z,99879.09
2023-03-03T06:01:59.030Z,99879.94
2023-03-03T06:03:05.038Z,99876.38
2023-03-03T06:04:08.976Z,99881.16
2023-03-03T06:05:53.254Z,99883.88
2023-03-03T06:07:14.420Z,99885.34
2023-03-03T06:07:57.648Z,99888.03
2023-03-03T06:08:41.772Z,99888.00
2023-03-03T06:11:49.397Z,99892.44
2023-03-03T06:12:33.049Z,99891.56
2023-03-03T06:13:19.920Z,99889.28
2023-03-03T06:14:26.984Z,99893.03
2023-03-03T06:15:44.605Z,99889.72
2023-03-03T06:17:35.302Z,99892.22
2023-03-03T06:20:23.344Z,99897.63
2023-03-03T06:21:03.456Z,99896.59
2023-03-03T06:21:46.312Z,99893.09
2023-03-03T06:22:28.325Z,99900.81
2023-03-03T06:24:32.307Z,99894.56
2023-03-03T06:25:14.396Z,99893.72
2023-03-03T06:25:54.409Z,99895.41
2023-03-03T06:26:59.265Z,99902.25
2023-03-03T06:31:15.579Z,99904.91
2023-03-03T06:31:59.286Z,99904.31
2023-03-03T06:33:02.825Z,99903.72
2023-03-03T06:36:08.468Z,99901.00
2023-03-03T06:38:43.420Z,99899.34
2023-03-03T06:40:10.421Z,99897.28
2023-03-03T06:40:52.359Z,99896.88
2023-03-03T06:41:56.172Z,99901.63
2023-03-03T06:43:26.064Z,99900.19
2023-03-03T06:44:08.665Z,99900.22
2023-03-03T06:46:00.986Z,99895.84
2023-03-03T06:50:42.336Z,99890.91
2023-03-03T06:51:47.624Z,99897.56
2023-03-03T06:55:10.485Z,99902.81
2023-03-03T07:04:27.000Z,99912.94
2023-03-03T07:05:31.021Z,99913.91
2023-03-03T07:06:36.763Z,99914.56
2023-03-03T07:08:55.302Z,99914.44
2023-03-03T07:09:48.397Z,99911.09
2023-03-03T07:22:54.494Z,99926.88
2023-03-03T07:27:01.128Z,99920.13
2023-03-03T07:30:29.571Z,99921.38
2023-03-03T07:31:01.879Z,99925.97
2023-03-03T07:31:40.334Z,99922.19
2023-03-03T07:45:27.403Z,99921.53
2023-03-03T07:46:50.978Z,99920.75
2023-03-03T07:47:27.175Z,99919.09
2023-03-03T07:49:36.038Z,99932.47
2023-03-03T07:50:23.347Z,99924.94
2023-03-03T07:51:46.207Z,99927.84
2023-03-03T07:53:06.861Z,99921.63
2023-03-03T07:57:21.489Z,99930.97
2023-03-03T07:58:15.171Z,99926.47
2023-03-03T07:58:53.352Z,99931.88
2023-03-03T08:00:19.123Z,99933.16
2023-03-03T08:03:49.682Z,99929.59
2023-03-03T08:06:46.728Z,99930.63
2023-03-03T08:07:41.619Z,99933.78
2023-03-03T08:08:45.848Z,99935.44
2023-03-03T08:10:16.325Z,99932.31
2023-03-03T08:11:20.885Z,99930.66
2023-03-03T08:12:43.072Z,99930.03
2023-03-03T08:17:05.642Z,99939.44
2023-03-03T08:17:53.562Z,99928.34
2023-03-03T08:18:47.910Z,99931.25
2023-03-03T08:20:48.643Z,99938.56
2023-03-03T08:21:32.096Z,99940.84
2023-03-03T08:22:22.392Z,99934.56
2023-03-03T08:23:28.166Z,99930.56
2023-03-03T08:24:46.854Z,99931.41
2023-03-03T08:30:04.817Z,99937.19
2023-03-03T08:30:47.916Z,99934.28
2023-03-03T08:31:41.513Z,99930.75
2023-03-03T08:32:34.810Z,99927.59
2023-03-03T08:33:58.004Z,99924.84
2023-03-03T08:37:09.102Z,99926.47
2023-03-03T08:38:14.685Z,99931.75
2023-03-03T08:44:50.729Z,99935.91
2023-03-03T08:46:29.605Z,99930.56
2023-03-03T08:49:36.101Z,99919.75
2023-03-03T08:50:42.340Z,99929.41
2023-03-03T08:52:07.022Z,99933.97
2023-03-03T08:57:18.025Z,99929.13
2023-03-03T08:58:30.470Z,99922.38
2023-03-03T09:00:01.487Z,99931.81
2023-03-03T09:00:44.708Z,99922.00
2023-03-03T09:01:27.491Z,99936.69
2023-03-03T09:02:31.177Z,99928.53
2023-03-03T09:06:37.438Z,99931.06
2023-03-03T09:09:15.289Z,99941.09
2023-03-03T09:09:57.458Z,99937.25
2023-03-03T09:10:44.328Z,99935.31
2023-03-03T09:11:29.538Z,99930.31
2023-03-03T09:13:19.551Z,99934.13
2023-03-03T09:14:13.427Z,99938.66
2023-03-03T09:14:53.502Z,99936.53
2023-03-03T09:15:58.772Z,99934.00
2023-03-03T09:20:54.841Z,99936.97
2023-03-03T09:22:34.173Z,99935.00
2023-03-03T09:23:30.700Z,99932.38
2023-03-03T09:24:11.801Z,99938.19
2023-03-03T09:25:15.088Z,99935.69
2023-03-03T09:26:07.047Z,99934.13
2023-03-03T09:26:47.475Z,99936.94
2023-03-03T09:27:39.754Z,99939.72
2023-03-03T09:29:31.922Z,99929.69
2023-03-03T09:32:40.598Z,99940.28
2023-03-03T09:33:20.356Z,99938.00
2023-03-03T09:34:18.738Z,99938.56
2023-03-03T09:35:02.779Z,99935.97
2023-03-03T09:36:06.466Z,99934.00
2023-03-03T09:36:46.833Z,99935.56
2023-03-03T09:37:54.597Z,99939.25
2023-03-03T09:40:41.690Z,99936.16
2023-03-03T09:42:33.608Z,99929.22
2023-03-03T09:43:27.399Z,99932.59
2023-03-03T09:44:41.685Z,99936.50
2023-03-03T09:47:03.377Z,99928.84
2023-03-03T09:48:08.415Z,99932.59
2023-03-03T09:49:22.077Z,99936.84
2023-03-03T09:51:10.071Z,99935.38
2023-03-03T09:52:54.640Z,99934.28
2023-03-03T09:53:43.105Z,99931.31
2023-03-03T09:54:25.123Z,99931.94
2023-03-03T09:55:47.716Z,99933.09
2023-03-03T09:56:27.133Z,99936.13
2023-03-03T09:59:15.321Z,99932.09
2023-03-03T10:01:21.713Z,99933.69
2023-03-03T10:03:54.611Z,99931.88
2023-03-03T10:04:46.688Z,99931.19
2023-03-03T10:06:23.169Z,99929.69
2023-03-03T10:08:53.709Z,99931.66
2023-03-03T10:09:58.364Z,99928.03
2023-03-03T10:11:42.137Z,99920.59
2023-03-03T10:15:02.255Z,99917.56
2023-03-03T10:16:06.998Z,99922.78
2023-03-03T10:22:20.677Z,99913.13
2023-03-03T10:24:58.301Z,99911.72
2023-03-03T10:26:11.584Z,99914.56
2023-03-03T10:27:51.495Z,99913.56
2023-03-03T10:28:50.393Z,99910.63
2023-03-03T10:31:11.740Z,99917.97
2023-03-03T10:33:10.104Z,99916.94
2023-03-03T10:34:09.529Z,99912.19
2023-03-03T10:35:00.005Z,99914.88
2023-03-03T10:38:01.483Z,99916.44
2023-03-03T10:40:24.651Z,99909.88
2023-03-03T10:45:23.180Z,99916.56
2023-03-03T10:46:24.588Z,99909.00
2023-03-03T10:47:35.997Z,99915.06
2023-03-03T10:48:43.490Z,99911.09
2023-03-03T10:50:16.209Z,99909.66
2023-03-03T10:53:49.460Z,99914.66
2023-03-03T10:55:39.486Z,99906.50
2023-03-03T10:57:36.842Z,99900.19
2023-03-03T10:58:37.814Z,99897.56
2023-03-03T10:59:33.951Z,99903.38
2023-03-03T11:00:47.628Z,99904.59
2023-03-03T11:01:55.534Z,99907.47
2023-03-03T11:03:57.830Z,99908.88
2023-03-03T11:05:03.538Z,99913.19
2023-03-03T11:05:56.727Z,99908.91
2023-03-03T11:07:05.150Z,99907.56
2023-03-03T11:08:06.662Z,99908.75
2023-03-03T11:08:57.651Z,99909.28
2023-03-03T11:10:09.574Z,99910.16
2023-03-03T11:11:36.612Z,99907.56
2023-03-03T11:12:24.437Z,99908.69
2023-03-03T11:13:19.636Z,99902.22
2023-03-03T11:14:37.979Z,99901.88
2023-03-03T11:15:20.967Z,99900.97
2023-03-03T11:16:16.263Z,99905.69
2023-03-03T11:17:18.611Z,99897.44
2023-03-03T11:18:15.786Z,99895.91
2023-03-03T11:19:05.902Z,99893.81
2023-03-03T11:20:20.770Z,99897.81
2023-03-03T11:21:02.946Z,99895.78
2023-03-03T11:22:05.743Z,99890.56
2023-03-03T11:23:08.931Z,99896.16
2023-03-03T11:24:53.582Z,99893.22
2023-03-03T11:26:13.671Z,99897.31
2023-03-03T11:26:53.981Z,99886.03
2023-03-03T11:29:50.223Z,99887.06
2023-03-03T11:32:23.359Z,99885.84
2023-03-03T11:33:04.558Z,99887.25
2023-03-03T11:34:10.994Z,99892.09
2023-03-03T11:36:02.884Z,99887.75
2023-03-03T11:38:07.735Z,99894.63
2023-03-03T11:39:12.419Z,99885.50
2023-03-03T11:41:39.973Z,99886.19
2023-03-03T11:43:37.074Z,99887.34
2023-03-03T11:44:19.531Z,99883.44
2023-03-03T11:45:18.498Z,99883.91
2023-03-03T11:48:17.389Z,99878.19
2023-03-03T11:49:15.760Z,99879.06
2023-03-03T11:49:57.518Z,99883.09
2023-03-03T11:50:47.059Z,99879.91
2023-03-03T11:52:16.984Z,99883.59
2023-03-03T11:53:36.101Z,99869.47
2023-03-03T11:55:14.099Z,99873.22
2023-03-03T11:56:03.290Z,99866.34
2023-03-03T11:56:45.896Z,99867.31
2023-03-03T11:57:51.318Z,99872.78
2023-03-03T11:58:47.301Z,99861.72
2023-03-03T12:00:09.773Z,99870.81
2023-03-03T12:01:15.777Z,99863.34
2023-03-03T12:02:26.407Z,99859.66
2023-03-03T12:04:38.461Z,99866.81
2023-03-03T12:05:46.871Z,99868.84
2023-03-03T12:07:17.928Z,99869.03
2023-03-03T12:07:58.599Z,99865.69
2023-03-03T12:09:22.597Z,99866.59
2023-03-03T12:12:12.385Z,99868.44
2023-03-03T12:14:03.467Z,99865.38
2023-03-03T12:15:08.616Z,99869.03
2023-03-03T12:16:06.471Z,99861.53
2023-03-03T12:17:26.351Z,99862.13
2023-03-03T12:18:29.332Z,99862.69
2023-03-03T12:20:18.660Z,99866.25
2023-03-03T12:21:56.927Z,99859.34
2023-03-03T12:23:07.217Z,99862.75
2023-03-03T12:23:46.471Z,99865.72
2023-03-03T12:24:50.119Z,99862.53
2023-03-03T12:27:42.746Z,99859.91
2023-03-03T12:30:05.390Z,99858.53
2023-03-03T12:32:21.646Z,99861.94
2023-03-03T12:33:23.751Z,99862.19
2023-03-03T12:34:15.264Z,99861.97
2023-03-03T12:35:22.381Z,99866.56
2023-03-03T12:37:15.002Z,99859.88
2023-03-03T12:39:17.714Z,99861.97
2023-03-03T12:40:24.081Z,99858.94
2023-03-03T12:41:03.450Z,99866.69
2023-03-03T12:42:07.501Z,99863.84
2023-03-03T12:43:23.866Z,99864.94
2023-03-03T12:46:21.328Z,99866.31
2023-03-03T12:47:37.865Z,99865.38
2023-03-03T12:48:23.660Z,99866.56
2023-03-03T12:49:05.828Z,99861.50
2023-03-03T12:50:07.073Z,99865.75
2023-03-03T12:51:12.610Z,99860.72
2023-03-03T12:52:11.892Z,99862.13
2023-03-03T12:53:13.160Z,99856.97
2023-03-03T12:54:18.060Z,99864.00
2023-03-03T12:56:01.731Z,99864.31
2023-03-03T12:56:55.385Z,99868.56
2023-03-03T12:57:56.882Z,99865.88
2023-03-03T12:58:36.450Z,99867.69
2023-03-03T12:59:18.762Z,99861.50
2023-03-03T13:02:08.289Z,99861.81
2023-03-03T13:02:59.834Z,99863.03
2023-03-03T13:04:08.891Z,99860.91
2023-03-03T13:05:07.212Z,99859.34
2023-03-03T13:06:01.379Z,99865.06
2023-03-03T13:06:53.344Z,99860.78
2023-03-03T13:08:16.567Z,99867.19
2023-03-03T13:09:38.319Z,99874.25
2023-03-03T13:12:00.921Z,99861.69
2023-03-03T13:13:45.097Z,99861.47
2023-03-03T13:14:25.305Z,99864.25
2023-03-03T13:15:32.896Z,99859.13
2023-03-03T13:16:22.266Z,99859.00
2023-03-03T13:17:21.621Z,99857.75
2023-03-03T13:18:20.134Z,99852.34
2023-03-03T13:19:22.235Z,99860.69
2023-03-03T13:20:27.451Z,99859.34
2023-03-03T13:21:09.482Z,99856.28
2023-03-03T13:22:01.571Z,99855.50
2023-03-03T13:22:43.722Z,99851.72
2023-03-03T13:23:38.414Z,99851.00
2023-03-03T13:24:17.668Z,99856.47
2023-03-03T13:25:08.838Z,99858.97
2023-03-03T13:26:13.018Z,99855.63
2023-03-03T13:28:16.552Z,99860.03
2023-03-03T13:30:30.728Z,99851.16
2023-03-03T13:31:38.269Z,99851.19
2023-03-03T13:34:18.459Z,99846.22
2023-03-03T13:35:01.035Z,99847.88
2023-03-03T13:35:44.718Z,99849.03
2023-03-03T13:36:53.970Z,99850.69
2023-03-03T13:39:02.986Z,99846.59
2023-03-03T13:40:55.215Z,99850.31
2023-03-03T13:41:34.470Z,99844.59
2023-03-03T13:42:49.184Z,99846.69
2023-03-03T13:43:50.876Z,99844.81
2023-03-03T13:44:56.422Z,99847.53
2023-03-03T13:46:41.885Z,99850.53
2023-03-03T13:48:32.942Z,99842.94
2023-03-03T13:49:39.693Z,99848.97
2023-03-03T13:50:38.206Z,99845.53
2023-03-03T13:51:26.136Z,99854.03
2023-03-03T13:52:53.193Z,99851.25
2023-03-03T13:53:32.397Z,99846.56
2023-03-03T13:54:49.425Z,99846.56
2023-03-03T13:55:43.739Z,99846.69
2023-03-03T13:56:42.211Z,99847.78
2023-03-03T13:58:38.508Z,99858.00
2023-03-03T14:00:30.013Z,99847.41
2023-03-03T14:01:41.287Z,99852.41
2023-03-03T14:03:39.334Z,99856.63
2023-03-03T14:04:18.557Z,99851.56
2023-03-03T14:05:15.912Z,99849.44
2023-03-03T14:06:34.036Z,99845.97
2023-03-03T14:07:59.948Z,99848.53
2023-03-03T14:09:58.423Z,99845.84
2023-03-03T14:10:38.475Z,99848.50
2023-03-03T14:11:35.693Z,99840.25
2023-03-03T14:13:34.346Z,99846.69
2023-03-03T14:14:47.767Z,99837.13
2023-03-03T14:15:26.383Z,99840.25
2023-03-03T14:16:23.166Z,99838.19
2023-03-03T14:17:58.348Z,99842.22
2023-03-03T14:19:05.809Z,99829.25
2023-03-03T14:19:51.388Z,99836.59
2023-03-03T14:20:41.318Z,99835.53
2023-03-03T14:21:21.375Z,99840.59
2023-03-03T14:22:16.737Z,99838.81
2023-03-03T14:23:02.194Z,99842.53
2023-03-03T14:23:55.888Z,99836.34
2023-03-03T14:25:06.589Z,99840.97
2023-03-03T14:26:00.009Z,99838.16
2023-03-03T14:26:50.351Z,99840.69
2023-03-03T14:27:51.522Z,99837.16
2023-03-03T14:28:40.384Z,99839.50
2023-03-03T14:29:28.795Z,99832.06
2023-03-03T14:30:37.763Z,99834.59
2023-03-03T14:31:16.453Z,99837.78
2023-03-03T14:31:59.881Z,99837.28
2023-03-03T14:33:01.903Z,99832.66
2023-03-03T14:33:55.608Z,99831.63
2023-03-03T14:35:22.682Z,99831.19
2023-03-03T14:36:04.771Z,99824.38
2023-03-03T14:36:46.882Z,99833.25
2023-03-03T14:37:46.796Z,99831.25
2023-03-03T14:40:09.640Z,99834.03
2023-03-03T14:41:39.993Z,99830.03
2023-03-03T14:42:45.059Z,99825.09
2023-03-03T14:44:12.401Z,99826.53
2023-03-03T14:44:51.535Z,99837.13
2023-03-03T14:45:42.610Z,99834.38
2023-03-03T14:46:21.575Z,99828.22
2023-03-03T14:47:03.140Z,99826.13
2023-03-03T14:47:42.721Z,99824.97
2023-03-03T14:48:25.473Z,99832.31
2023-03-03T14:49:05.532Z,99836.69
2023-03-03T14:49:48.669Z,99832.31
2023-03-03T14:51:32.153Z,99826.84
2023-03-03T14:52:15.717Z,99824.44
2023-03-03T14:53:33.182Z,99823.66
2023-03-03T14:55:01.417Z,99825.19
2023-03-03T14:55:51.145Z,99822.59
2023-03-03T14:57:22.196Z,99826.50
2023-03-03T14:58:00.943Z,99829.28
2023-03-03T14:58:43.212Z,99829.06
2023-03-03T14:59:27.047Z,99831.38
2023-03-03T15:02:30.765Z,99832.75
2023-03-03T15:03:38.169Z,99834.31
2023-03-03T15:04:18.409Z,99829.72
2023-03-03T15:05:36.395Z,99827.44
2023-03-03T15:06:36.739Z,99825.88
2023-03-03T15:07:40.068Z,99828.59
2023-03-03T15:08:32.993Z,99825.88
2023-03-03T15:09:48.996Z,99835.00
2023-03-03T15:10:29.442Z,99838.38
2023-03-03T15:11:18.627Z,99828.31
2023-03-03T15:12:26.077Z,99826.56
2023-03-03T15:13:20.707Z,99835.09
2023-03-03T15:14:18.351Z,99822.91
2023-03-03T15:15:20.079Z,99829.06
2023-03-03T15:15:59.510Z,99825.34
2023-03-03T15:16:40.183Z,99824.97
2023-03-03T15:17:41.506Z,99828.97
2023-03-03T15:19:33.683Z,99824.44
2023-03-03T15:20:55.482Z,99826.31
2023-03-03T15:21:50.293Z,99823.59
2023-03-03T15:23:57.605Z,99830.75
2023-03-03T15:24:56.461Z,99826.75
2023-03-03T15:26:23.817Z,99829.31
2023-03-03T15:27:10.540Z,99834.31
2023-03-03T15:27:53.135Z,99836.59
2023-03-03T15:29:05.971Z,99828.47
2023-03-03T15:30:36.540Z,99827.28
2023-03-03T15:32:13.080Z,99833.59
2023-03-03T15:33:16.437Z,99842.75
2023-03-03T15:34:59.950Z,99844.09
2023-03-03T15:36:16.413Z,99837.81
2023-03-03T15:37:02.962Z,99846.81
2023-03-03T15:37:54.146Z,99849.19